Terminal Aerodrome Forecast
Issued by NWS

Home | Current Version | Previous Version | Text Only | Print | Product List | Glossary On
Versions: 1 2 3 4 5 6 7 8 9 10 11 12 13 14
000
FTUS41 KBTV 252006 AAA
TAFPBG
TAF AMD
KPBG 252006Z 2520/2618 13005KT 6SM -RA BR OVC070
     FM260200 07006KT 3SM -RA BR OVC035
     FM260900 01010KT 6SM BR VCSH OVC025
     FM261700 36011KT P6SM VCSH OVC015=

USA.gov is the U.S. government's official web portal to all federal, state and local government web resources and services.